Terminal Aerodrome Forecast
Issued by NWS Tulsa, OK

Home | Current Version | Previous Version | Text Only | Print | Product List | Glossary Off
Versions: 1 2 3 4 5 6 7 8 9 10 11 12 13 14

000
FTUS44 KTSA 301133
TAFTUL
TAF
KTUL 301133Z 3012/3112 05006KT P6SM SKC
     FM301800 14006KT P6SM SCT040
     FM310100 16006KT P6SM SKC=

USA.gov is the U.S. government's official web portal to all federal, state and local government web resources and services.